sensor_id;sensor_type;location;lat;lon;timestamp;P1;durP1;ratioP1;P2;durP2;ratioP2
51828;SDS011;37881;48.024;8.774;2022-07-04T00:00:13;5.72;;;2.72;;
51828;SDS011;37881;48.024;8.774;2022-07-04T00:02:41;6.22;;;2.83;;
51828;SDS011;37881;48.024;8.774;2022-07-04T00:05:09;5.20;;;2.33;;
51828;SDS011;37881;48.024;8.774;2022-07-04T00:07:38;6.03;;;2.67;;
51828;SDS011;37881;48.024;8.774;2022-07-04T00:10:06;7.50;;;2.60;;
51828;SDS011;37881;48.024;8.774;2022-07-04T00:12:37;4.40;;;2.38;;
51828;SDS011;37881;48.024;8.774;2022-07-04T00:15:04;24.27;;;2.70;;
51828;SDS011;37881;48.024;8.774;2022-07-04T00:17:32;5.10;;;2.57;;
51828;SDS011;37881;48.024;8.774;2022-07-04T00:19:59;4.28;;;2.50;;
51828;SDS011;37881;48.024;8.774;2022-07-04T00:22:26;3.83;;;2.30;;
51828;SDS011;37881;48.024;8.774;2022-07-04T00:24:52;6.18;;;2.42;;
51828;SDS011;37881;48.024;8.774;2022-07-04T00:27:19;5.90;;;2.85;;
51828;SDS011;37881;48.024;8.774;2022-07-04T00:29:46;4.60;;;3.33;;
51828;SDS011;37881;48.024;8.774;2022-07-04T00:32:13;3.95;;;2.83;;
51828;SDS011;37881;48.024;8.774;2022-07-04T00:34:40;5.32;;;2.95;;
51828;SDS011;37881;48.024;8.774;2022-07-04T00:37:06;4.47;;;2.70;;
51828;SDS011;37881;48.024;8.774;2022-07-04T00:39:33;5.20;;;3.00;;
51828;SDS011;37881;48.024;8.774;2022-07-04T00:42:06;6.50;;;3.20;;
51828;SDS011;37881;48.024;8.774;2022-07-04T00:44:34;13.52;;;9.10;;
51828;SDS011;37881;48.024;8.774;2022-07-04T00:47:03;6.80;;;3.97;;
51828;SDS011;37881;48.024;8.774;2022-07-04T00:49:31;4.43;;;2.78;;
51828;SDS011;37881;48.024;8.774;2022-07-04T00:51:59;5.22;;;2.88;;
51828;SDS011;37881;48.024;8.774;2022-07-04T00:54:27;5.03;;;2.80;;
51828;SDS011;37881;48.024;8.774;2022-07-04T00:56:57;4.22;;;2.53;;
51828;SDS011;37881;48.024;8.774;2022-07-04T00:59:24;4.65;;;2.63;;
51828;SDS011;37881;48.024;8.774;2022-07-04T01:01:51;4.75;;;2.70;;
51828;SDS011;37881;48.024;8.774;2022-07-04T01:04:19;6.43;;;2.83;;
51828;SDS011;37881;48.024;8.774;2022-07-04T01:06:45;4.53;;;2.80;;
51828;SDS011;37881;48.024;8.774;2022-07-04T01:09:12;5.22;;;2.83;;
51828;SDS011;37881;48.024;8.774;2022-07-04T01:11:39;5.57;;;2.95;;
51828;SDS011;37881;48.024;8.774;2022-07-04T01:14:06;5.15;;;2.80;;
51828;SDS011;37881;48.024;8.774;2022-07-04T01:16:33;5.32;;;3.28;;
51828;SDS011;37881;48.024;8.774;2022-07-04T01:19:02;5.63;;;2.90;;
51828;SDS011;37881;48.024;8.774;2022-07-04T01:21:30;5.63;;;3.03;;
51828;SDS011;37881;48.024;8.774;2022-07-04T01:23:58;5.00;;;3.17;;
51828;SDS011;37881;48.024;8.774;2022-07-04T01:26:24;4.78;;;2.80;;
51828;SDS011;37881;48.024;8.774;2022-07-04T01:28:51;5.38;;;2.92;;
51828;SDS011;37881;48.024;8.774;2022-07-04T01:31:18;5.53;;;3.43;;
51828;SDS011;37881;48.024;8.774;2022-07-04T01:33:45;5.55;;;2.90;;
51828;SDS011;37881;48.024;8.774;2022-07-04T01:36:11;11.73;;;5.75;;
51828;SDS011;37881;48.024;8.774;2022-07-04T01:38:38;4.95;;;3.10;;
51828;SDS011;37881;48.024;8.774;2022-07-04T01:41:05;5.35;;;3.30;;
51828;SDS011;37881;48.024;8.774;2022-07-04T01:43:32;7.17;;;3.10;;
51828;SDS011;37881;48.024;8.774;2022-07-04T01:45:58;7.07;;;3.10;;
51828;SDS011;37881;48.024;8.774;2022-07-04T01:48:25;6.38;;;3.40;;
51828;SDS011;37881;48.024;8.774;2022-07-04T01:50:52;6.25;;;3.42;;
51828;SDS011;37881;48.024;8.774;2022-07-04T01:53:18;5.53;;;3.58;;
51828;SDS011;37881;48.024;8.774;2022-07-04T01:55:45;5.50;;;3.30;;
51828;SDS011;37881;48.024;8.774;2022-07-04T01:58:12;5.72;;;3.50;;
51828;SDS011;37881;48.024;8.774;2022-07-04T02:00:39;6.38;;;3.30;;
51828;SDS011;37881;48.024;8.774;2022-07-04T02:03:23;6.55;;;3.45;;
51828;SDS011;37881;48.024;8.774;2022-07-04T02:05:50;6.90;;;3.90;;
51828;SDS011;37881;48.024;8.774;2022-07-04T02:08:17;6.33;;;3.03;;
51828;SDS011;37881;48.024;8.774;2022-07-04T02:10:44;6.50;;;3.50;;
51828;SDS011;37881;48.024;8.774;2022-07-04T02:13:11;5.22;;;3.83;;
51828;SDS011;37881;48.024;8.774;2022-07-04T02:15:39;5.47;;;3.50;;
51828;SDS011;37881;48.024;8.774;2022-07-04T02:18:08;5.53;;;3.60;;
51828;SDS011;37881;48.024;8.774;2022-07-04T02:20:37;5.73;;;3.43;;
51828;SDS011;37881;48.024;8.774;2022-07-04T02:23:04;7.20;;;3.72;;
51828;SDS011;37881;48.024;8.774;2022-07-04T02:25:31;6.43;;;4.28;;
51828;SDS011;37881;48.024;8.774;2022-07-04T02:27:58;6.32;;;4.43;;
51828;SDS011;37881;48.024;8.774;2022-07-04T02:30:25;8.77;;;4.35;;
51828;SDS011;37881;48.024;8.774;2022-07-04T02:32:52;5.43;;;4.27;;
51828;SDS011;37881;48.024;8.774;2022-07-04T02:35:19;7.07;;;4.07;;
51828;SDS011;37881;48.024;8.774;2022-07-04T02:37:46;5.17;;;3.70;;
51828;SDS011;37881;48.024;8.774;2022-07-04T02:40:12;5.32;;;3.80;;
51828;SDS011;37881;48.024;8.774;2022-07-04T02:42:39;7.43;;;3.80;;
51828;SDS011;37881;48.024;8.774;2022-07-04T02:45:06;7.27;;;4.30;;
51828;SDS011;37881;48.024;8.774;2022-07-04T02:47:33;6.00;;;3.90;;
51828;SDS011;37881;48.024;8.774;2022-07-04T02:50:01;7.22;;;3.60;;
51828;SDS011;37881;48.024;8.774;2022-07-04T02:52:29;19.90;;;12.38;;
51828;SDS011;37881;48.024;8.774;2022-07-04T02:54:56;12.77;;;7.18;;
51828;SDS011;37881;48.024;8.774;2022-07-04T02:57:23;14.63;;;9.43;;
51828;SDS011;37881;48.024;8.774;2022-07-04T02:59:50;8.88;;;4.80;;
51828;SDS011;37881;48.024;8.774;2022-07-04T03:02:17;8.73;;;5.88;;
51828;SDS011;37881;48.024;8.774;2022-07-04T03:04:44;5.80;;;3.90;;
51828;SDS011;37881;48.024;8.774;2022-07-04T03:07:11;7.43;;;4.28;;
51828;SDS011;37881;48.024;8.774;2022-07-04T03:09:37;8.37;;;4.20;;
51828;SDS011;37881;48.024;8.774;2022-07-04T03:12:04;7.38;;;3.92;;
51828;SDS011;37881;48.024;8.774;2022-07-04T03:14:32;6.55;;;4.00;;
51828;SDS011;37881;48.024;8.774;2022-07-04T03:16:58;8.23;;;4.47;;
51828;SDS011;37881;48.024;8.774;2022-07-04T03:19:25;6.82;;;4.22;;
51828;SDS011;37881;48.024;8.774;2022-07-04T03:21:52;9.43;;;4.10;;
51828;SDS011;37881;48.024;8.774;2022-07-04T03:24:19;10.07;;;4.20;;
51828;SDS011;37881;48.024;8.774;2022-07-04T03:26:45;6.97;;;4.10;;
51828;SDS011;37881;48.024;8.774;2022-07-04T03:29:12;6.28;;;4.20;;
51828;SDS011;37881;48.024;8.774;2022-07-04T03:31:39;7.00;;;4.15;;
51828;SDS011;37881;48.024;8.774;2022-07-04T03:34:06;6.67;;;4.10;;
51828;SDS011;37881;48.024;8.774;2022-07-04T03:36:33;6.63;;;4.10;;
51828;SDS011;37881;48.024;8.774;2022-07-04T03:38:59;5.15;;;4.10;;
51828;SDS011;37881;48.024;8.774;2022-07-04T03:41:26;5.57;;;4.20;;
51828;SDS011;37881;48.024;8.774;2022-07-04T03:43:53;6.80;;;4.20;;
51828;SDS011;37881;48.024;8.774;2022-07-04T03:46:20;6.70;;;4.53;;
51828;SDS011;37881;48.024;8.774;2022-07-04T03:48:46;6.40;;;4.35;;
51828;SDS011;37881;48.024;8.774;2022-07-04T03:51:13;6.50;;;4.30;;
51828;SDS011;37881;48.024;8.774;2022-07-04T03:53:41;6.28;;;3.90;;
51828;SDS011;37881;48.024;8.774;2022-07-04T03:56:08;5.93;;;4.40;;
51828;SDS011;37881;48.024;8.774;2022-07-04T03:58:35;5.77;;;4.10;;
51828;SDS011;37881;48.024;8.774;2022-07-04T04:01:02;5.50;;;3.90;;
51828;SDS011;37881;48.024;8.774;2022-07-04T04:03:29;6.45;;;3.95;;
51828;SDS011;37881;48.024;8.774;2022-07-04T04:06:15;5.35;;;3.67;;
51828;SDS011;37881;48.024;8.774;2022-07-04T04:08:41;7.78;;;4.25;;
51828;SDS011;37881;48.024;8.774;2022-07-04T04:11:08;5.90;;;4.40;;
51828;SDS011;37881;48.024;8.774;2022-07-04T04:13:35;5.72;;;4.07;;
51828;SDS011;37881;48.024;8.774;2022-07-04T04:16:02;6.80;;;4.05;;
51828;SDS011;37881;48.024;8.774;2022-07-04T04:18:28;6.07;;;4.20;;
51828;SDS011;37881;48.024;8.774;2022-07-04T04:20:55;6.18;;;4.32;;
51828;SDS011;37881;48.024;8.774;2022-07-04T04:23:22;6.70;;;4.00;;
51828;SDS011;37881;48.024;8.774;2022-07-04T04:25:49;5.72;;;4.18;;
51828;SDS011;37881;48.024;8.774;2022-07-04T04:28:21;5.82;;;3.80;;
51828;SDS011;37881;48.024;8.774;2022-07-04T04:30:51;5.85;;;4.18;;
51828;SDS011;37881;48.024;8.774;2022-07-04T04:33:18;5.18;;;3.95;;
51828;SDS011;37881;48.024;8.774;2022-07-04T04:35:45;7.10;;;4.17;;
51828;SDS011;37881;48.024;8.774;2022-07-04T04:38:12;6.57;;;4.60;;
51828;SDS011;37881;48.024;8.774;2022-07-04T04:40:38;6.05;;;4.18;;
51828;SDS011;37881;48.024;8.774;2022-07-04T04:43:05;8.57;;;4.00;;
51828;SDS011;37881;48.024;8.774;2022-07-04T04:45:32;8.45;;;3.95;;
51828;SDS011;37881;48.024;8.774;2022-07-04T04:47:58;4.93;;;3.77;;
51828;SDS011;37881;48.024;8.774;2022-07-04T04:50:25;6.15;;;4.00;;
51828;SDS011;37881;48.024;8.774;2022-07-04T04:52:52;5.10;;;3.67;;
51828;SDS011;37881;48.024;8.774;2022-07-04T04:55:18;7.10;;;4.15;;
51828;SDS011;37881;48.024;8.774;2022-07-04T04:57:45;6.57;;;4.22;;
51828;SDS011;37881;48.024;8.774;2022-07-04T05:00:12;6.83;;;4.33;;
51828;SDS011;37881;48.024;8.774;2022-07-04T05:02:39;6.78;;;3.72;;
51828;SDS011;37881;48.024;8.774;2022-07-04T05:05:06;6.88;;;4.40;;
51828;SDS011;37881;48.024;8.774;2022-07-04T05:07:33;6.60;;;4.10;;
51828;SDS011;37881;48.024;8.774;2022-07-04T05:10:01;6.75;;;4.10;;
51828;SDS011;37881;48.024;8.774;2022-07-04T05:12:28;6.80;;;4.20;;
51828;SDS011;37881;48.024;8.774;2022-07-04T05:14:55;6.82;;;4.18;;
51828;SDS011;37881;48.024;8.774;2022-07-04T05:17:23;8.45;;;4.40;;
51828;SDS011;37881;48.024;8.774;2022-07-04T05:19:50;8.27;;;4.40;;
51828;SDS011;37881;48.024;8.774;2022-07-04T05:22:16;7.40;;;4.45;;
51828;SDS011;37881;48.024;8.774;2022-07-04T05:24:44;7.90;;;4.70;;
51828;SDS011;37881;48.024;8.774;2022-07-04T05:27:11;6.93;;;4.22;;
51828;SDS011;37881;48.024;8.774;2022-07-04T05:29:38;6.07;;;4.43;;
51828;SDS011;37881;48.024;8.774;2022-07-04T05:32:05;7.63;;;4.78;;
51828;SDS011;37881;48.024;8.774;2022-07-04T05:34:33;5.65;;;4.70;;
51828;SDS011;37881;48.024;8.774;2022-07-04T05:37:01;6.77;;;4.90;;
51828;SDS011;37881;48.024;8.774;2022-07-04T05:39:29;6.47;;;4.45;;
51828;SDS011;37881;48.024;8.774;2022-07-04T05:41:56;8.40;;;4.82;;
51828;SDS011;37881;48.024;8.774;2022-07-04T05:44:22;6.22;;;4.85;;
51828;SDS011;37881;48.024;8.774;2022-07-04T05:46:49;7.82;;;4.63;;
51828;SDS011;37881;48.024;8.774;2022-07-04T05:49:16;8.87;;;4.93;;
51828;SDS011;37881;48.024;8.774;2022-07-04T05:51:43;7.88;;;5.22;;
51828;SDS011;37881;48.024;8.774;2022-07-04T05:54:09;9.30;;;5.10;;
51828;SDS011;37881;48.024;8.774;2022-07-04T05:56:36;7.07;;;5.00;;
51828;SDS011;37881;48.024;8.774;2022-07-04T05:59:04;7.85;;;4.70;;
51828;SDS011;37881;48.024;8.774;2022-07-04T06:01:30;10.30;;;5.10;;
51828;SDS011;37881;48.024;8.774;2022-07-04T06:03:57;8.65;;;4.75;;
51828;SDS011;37881;48.024;8.774;2022-07-04T06:06:24;6.47;;;4.60;;
51828;SDS011;37881;48.024;8.774;2022-07-04T06:08:51;5.40;;;4.05;;
51828;SDS011;37881;48.024;8.774;2022-07-04T06:11:17;7.65;;;4.53;;
51828;SDS011;37881;48.024;8.774;2022-07-04T06:13:44;5.57;;;4.13;;
51828;SDS011;37881;48.024;8.774;2022-07-04T06:16:11;7.20;;;4.30;;
51828;SDS011;37881;48.024;8.774;2022-07-04T06:18:38;6.80;;;3.60;;
51828;SDS011;37881;48.024;8.774;2022-07-04T06:21:05;5.82;;;3.70;;
51828;SDS011;37881;48.024;8.774;2022-07-04T06:23:32;7.10;;;3.85;;
51828;SDS011;37881;48.024;8.774;2022-07-04T06:25:59;5.00;;;3.50;;
51828;SDS011;37881;48.024;8.774;2022-07-04T06:28:26;6.40;;;4.00;;
51828;SDS011;37881;48.024;8.774;2022-07-04T06:31:12;5.80;;;3.83;;
51828;SDS011;37881;48.024;8.774;2022-07-04T06:33:40;5.22;;;3.80;;
51828;SDS011;37881;48.024;8.774;2022-07-04T06:36:25;4.72;;;3.33;;
51828;SDS011;37881;48.024;8.774;2022-07-04T06:38:52;5.90;;;3.20;;
51828;SDS011;37881;48.024;8.774;2022-07-04T06:41:18;7.05;;;3.50;;
51828;SDS011;37881;48.024;8.774;2022-07-04T06:43:45;5.60;;;3.67;;
51828;SDS011;37881;48.024;8.774;2022-07-04T06:46:12;6.22;;;3.50;;
51828;SDS011;37881;48.024;8.774;2022-07-04T06:48:39;5.40;;;3.50;;
51828;SDS011;37881;48.024;8.774;2022-07-04T06:51:05;5.90;;;3.30;;
51828;SDS011;37881;48.024;8.774;2022-07-04T06:53:32;6.00;;;3.20;;
51828;SDS011;37881;48.024;8.774;2022-07-04T06:55:59;6.45;;;3.60;;
51828;SDS011;37881;48.024;8.774;2022-07-04T06:58:26;6.35;;;3.67;;
51828;SDS011;37881;48.024;8.774;2022-07-04T07:00:53;5.85;;;3.30;;
51828;SDS011;37881;48.024;8.774;2022-07-04T07:03:19;5.27;;;3.37;;
51828;SDS011;37881;48.024;8.774;2022-07-04T07:05:46;6.50;;;3.88;;
51828;SDS011;37881;48.024;8.774;2022-07-04T07:08:30;5.88;;;3.65;;
51828;SDS011;37881;48.024;8.774;2022-07-04T07:10:57;5.35;;;3.63;;
51828;SDS011;37881;48.024;8.774;2022-07-04T07:13:43;5.57;;;3.45;;
51828;SDS011;37881;48.024;8.774;2022-07-04T07:16:11;5.03;;;3.30;;
51828;SDS011;37881;48.024;8.774;2022-07-04T07:18:38;5.32;;;3.22;;
51828;SDS011;37881;48.024;8.774;2022-07-04T07:21:05;4.57;;;3.08;;
51828;SDS011;37881;48.024;8.774;2022-07-04T07:23:32;5.45;;;3.35;;
51828;SDS011;37881;48.024;8.774;2022-07-04T07:25:59;4.72;;;3.10;;
51828;SDS011;37881;48.024;8.774;2022-07-04T07:28:26;5.17;;;3.40;;
51828;SDS011;37881;48.024;8.774;2022-07-04T07:30:52;4.25;;;2.88;;
51828;SDS011;37881;48.024;8.774;2022-07-04T07:33:19;4.85;;;3.00;;
51828;SDS011;37881;48.024;8.774;2022-07-04T07:35:46;5.05;;;3.10;;
51828;SDS011;37881;48.024;8.774;2022-07-04T07:38:13;4.60;;;3.00;;
51828;SDS011;37881;48.024;8.774;2022-07-04T07:40:39;4.13;;;2.80;;
51828;SDS011;37881;48.024;8.774;2022-07-04T07:43:06;5.15;;;3.10;;
51828;SDS011;37881;48.024;8.774;2022-07-04T07:45:34;4.00;;;2.90;;
51828;SDS011;37881;48.024;8.774;2022-07-04T07:48:01;5.05;;;2.70;;
51828;SDS011;37881;48.024;8.774;2022-07-04T07:50:28;5.13;;;2.97;;
51828;SDS011;37881;48.024;8.774;2022-07-04T07:52:55;4.30;;;2.60;;
51828;SDS011;37881;48.024;8.774;2022-07-04T07:55:22;4.10;;;2.33;;
51828;SDS011;37881;48.024;8.774;2022-07-04T07:57:49;5.25;;;2.65;;
51828;SDS011;37881;48.024;8.774;2022-07-04T08:00:15;4.22;;;2.50;;
51828;SDS011;37881;48.024;8.774;2022-07-04T08:03:02;4.50;;;2.50;;
51828;SDS011;37881;48.024;8.774;2022-07-04T08:05:48;3.63;;;2.37;;
51828;SDS011;37881;48.024;8.774;2022-07-04T08:08:15;4.40;;;2.15;;
51828;SDS011;37881;48.024;8.774;2022-07-04T08:10:42;3.30;;;2.10;;
51828;SDS011;37881;48.024;8.774;2022-07-04T08:13:09;4.68;;;2.40;;
51828;SDS011;37881;48.024;8.774;2022-07-04T08:15:36;5.63;;;2.40;;
51828;SDS011;37881;48.024;8.774;2022-07-04T08:18:03;4.83;;;2.40;;
51828;SDS011;37881;48.024;8.774;2022-07-04T08:20:30;4.20;;;2.05;;
51828;SDS011;37881;48.024;8.774;2022-07-04T08:23:14;3.92;;;2.13;;
51828;SDS011;37881;48.024;8.774;2022-07-04T08:25:41;3.95;;;2.00;;
51828;SDS011;37881;48.024;8.774;2022-07-04T08:28:09;3.97;;;2.20;;
51828;SDS011;37881;48.024;8.774;2022-07-04T08:30:36;4.37;;;2.00;;
51828;SDS011;37881;48.024;8.774;2022-07-04T08:33:02;3.50;;;1.98;;
51828;SDS011;37881;48.024;8.774;2022-07-04T08:35:29;5.40;;;2.10;;
51828;SDS011;37881;48.024;8.774;2022-07-04T08:37:56;3.58;;;2.10;;
51828;SDS011;37881;48.024;8.774;2022-07-04T08:40:23;4.25;;;2.53;;
51828;SDS011;37881;48.024;8.774;2022-07-04T08:42:51;4.57;;;2.10;;
51828;SDS011;37881;48.024;8.774;2022-07-04T08:45:29;4.47;;;2.22;;
51828;SDS011;37881;48.024;8.774;2022-07-04T08:48:00;4.10;;;2.13;;
51828;SDS011;37881;48.024;8.774;2022-07-04T08:50:34;3.42;;;2.20;;
51828;SDS011;37881;48.024;8.774;2022-07-04T08:53:10;5.38;;;2.20;;
51828;SDS011;37881;48.024;8.774;2022-07-04T08:55:41;6.30;;;2.40;;
51828;SDS011;37881;48.024;8.774;2022-07-04T08:58:27;4.40;;;2.40;;
51828;SDS011;37881;48.024;8.774;2022-07-04T09:01:08;4.38;;;2.40;;
51828;SDS011;37881;48.024;8.774;2022-07-04T09:03:42;4.05;;;2.40;;
51828;SDS011;37881;48.024;8.774;2022-07-04T09:06:10;6.10;;;2.78;;
51828;SDS011;37881;48.024;8.774;2022-07-04T09:08:38;4.00;;;2.70;;
51828;SDS011;37881;48.024;8.774;2022-07-04T09:11:07;4.15;;;2.70;;
51828;SDS011;37881;48.024;8.774;2022-07-04T09:13:34;4.82;;;2.40;;
51828;SDS011;37881;48.024;8.774;2022-07-04T09:16:01;4.70;;;2.30;;
51828;SDS011;37881;48.024;8.774;2022-07-04T09:18:30;4.30;;;2.38;;
51828;SDS011;37881;48.024;8.774;2022-07-04T09:20:58;4.30;;;2.17;;
51828;SDS011;37881;48.024;8.774;2022-07-04T09:23:27;3.28;;;2.20;;
51828;SDS011;37881;48.024;8.774;2022-07-04T09:28:57;4.38;;;2.45;;
51828;SDS011;37881;48.024;8.774;2022-07-04T09:31:28;3.78;;;2.42;;
51828;SDS011;37881;48.024;8.774;2022-07-04T09:34:00;5.07;;;2.37;;
51828;SDS011;37881;48.024;8.774;2022-07-04T09:36:31;5.22;;;2.60;;
51828;SDS011;37881;48.024;8.774;2022-07-04T09:41:49;4.45;;;2.20;;
51828;SDS011;37881;48.024;8.774;2022-07-04T09:44:22;5.60;;;2.20;;
51828;SDS011;37881;48.024;8.774;2022-07-04T09:46:55;3.80;;;2.17;;
51828;SDS011;37881;48.024;8.774;2022-07-04T09:49:23;3.80;;;2.30;;
51828;SDS011;37881;48.024;8.774;2022-07-04T09:51:51;4.00;;;2.40;;
51828;SDS011;37881;48.024;8.774;2022-07-04T09:56:46;4.50;;;2.70;;
51828;SDS011;37881;48.024;8.774;2022-07-04T09:59:15;4.60;;;2.23;;
51828;SDS011;37881;48.024;8.774;2022-07-04T10:01:42;3.83;;;2.50;;
51828;SDS011;37881;48.024;8.774;2022-07-04T10:04:09;4.47;;;2.20;;
51828;SDS011;37881;48.024;8.774;2022-07-04T10:06:38;3.45;;;2.30;;
51828;SDS011;37881;48.024;8.774;2022-07-04T10:09:10;3.35;;;2.35;;
51828;SDS011;37881;48.024;8.774;2022-07-04T10:11:40;3.70;;;2.43;;
51828;SDS011;37881;48.024;8.774;2022-07-04T10:14:08;3.92;;;2.58;;
51828;SDS011;37881;48.024;8.774;2022-07-04T10:16:37;4.32;;;2.20;;
51828;SDS011;37881;48.024;8.774;2022-07-04T10:19:05;4.72;;;2.50;;
51828;SDS011;37881;48.024;8.774;2022-07-04T10:21:34;4.28;;;2.60;;
51828;SDS011;37881;48.024;8.774;2022-07-04T10:24:01;4.93;;;2.90;;
51828;SDS011;37881;48.024;8.774;2022-07-04T10:26:31;4.50;;;2.85;;
51828;SDS011;37881;48.024;8.774;2022-07-04T10:28:58;3.53;;;2.50;;
51828;SDS011;37881;48.024;8.774;2022-07-04T10:31:26;3.40;;;2.60;;
51828;SDS011;37881;48.024;8.774;2022-07-04T10:33:56;5.22;;;2.80;;
51828;SDS011;37881;48.024;8.774;2022-07-04T10:36:25;4.37;;;2.80;;
51828;SDS011;37881;48.024;8.774;2022-07-04T10:38:58;3.88;;;2.60;;
51828;SDS011;37881;48.024;8.774;2022-07-04T10:41:30;4.03;;;2.80;;
51828;SDS011;37881;48.024;8.774;2022-07-04T10:43:58;4.68;;;2.80;;
51828;SDS011;37881;48.024;8.774;2022-07-04T10:46:28;4.00;;;2.88;;
51828;SDS011;37881;48.024;8.774;2022-07-04T10:51:40;4.28;;;2.80;;
51828;SDS011;37881;48.024;8.774;2022-07-04T11:02:27;3.80;;;3.10;;
51828;SDS011;37881;48.024;8.774;2022-07-04T11:17:52;5.20;;;4.10;;
51828;SDS011;37881;48.024;8.774;2022-07-04T11:20:23;6.40;;;4.10;;
51828;SDS011;37881;48.024;8.774;2022-07-04T11:22:51;6.80;;;4.40;;
51828;SDS011;37881;48.024;8.774;2022-07-04T11:25:18;5.43;;;4.13;;
51828;SDS011;37881;48.024;8.774;2022-07-04T11:27:45;7.93;;;4.37;;
51828;SDS011;37881;48.024;8.774;2022-07-04T11:30:11;6.63;;;4.30;;
51828;SDS011;37881;48.024;8.774;2022-07-04T11:32:41;7.43;;;4.72;;
51828;SDS011;37881;48.024;8.774;2022-07-04T11:35:08;6.72;;;4.45;;
51828;SDS011;37881;48.024;8.774;2022-07-04T11:37:35;5.75;;;4.25;;
51828;SDS011;37881;48.024;8.774;2022-07-04T11:40:05;5.00;;;4.17;;
51828;SDS011;37881;48.024;8.774;2022-07-04T11:43:03;6.10;;;4.20;;
51828;SDS011;37881;48.024;8.774;2022-07-04T11:45:52;5.85;;;3.92;;
51828;SDS011;37881;48.024;8.774;2022-07-04T11:48:23;5.28;;;4.22;;
51828;SDS011;37881;48.024;8.774;2022-07-04T11:50:50;6.13;;;4.38;;
51828;SDS011;37881;48.024;8.774;2022-07-04T11:53:17;8.03;;;4.63;;
51828;SDS011;37881;48.024;8.774;2022-07-04T11:55:53;5.70;;;4.25;;
51828;SDS011;37881;48.024;8.774;2022-07-04T11:58:22;6.43;;;4.70;;
51828;SDS011;37881;48.024;8.774;2022-07-04T12:00:52;5.68;;;4.70;;
51828;SDS011;37881;48.024;8.774;2022-07-04T12:03:18;6.65;;;5.00;;
51828;SDS011;37881;48.024;8.774;2022-07-04T12:05:45;6.13;;;4.57;;
51828;SDS011;37881;48.024;8.774;2022-07-04T12:08:12;6.55;;;4.55;;
51828;SDS011;37881;48.024;8.774;2022-07-04T12:10:54;6.57;;;4.88;;
51828;SDS011;37881;48.024;8.774;2022-07-04T12:13:21;6.35;;;4.85;;
51828;SDS011;37881;48.024;8.774;2022-07-04T12:15:49;6.28;;;4.78;;
51828;SDS011;37881;48.024;8.774;2022-07-04T12:18:19;5.93;;;4.47;;
51828;SDS011;37881;48.024;8.774;2022-07-04T12:20:52;6.15;;;4.15;;
51828;SDS011;37881;48.024;8.774;2022-07-04T12:23:20;6.47;;;4.22;;
51828;SDS011;37881;48.024;8.774;2022-07-04T12:25:51;7.07;;;4.72;;
51828;SDS011;37881;48.024;8.774;2022-07-04T12:28:18;6.50;;;4.50;;
51828;SDS011;37881;48.024;8.774;2022-07-04T12:30:49;6.13;;;4.27;;
51828;SDS011;37881;48.024;8.774;2022-07-04T12:33:18;5.45;;;4.85;;
51828;SDS011;37881;48.024;8.774;2022-07-04T12:35:50;6.97;;;4.40;;
51828;SDS011;37881;48.024;8.774;2022-07-04T12:49:08;6.78;;;4.38;;
51828;SDS011;37881;48.024;8.774;2022-07-04T12:51:43;6.90;;;4.90;;
51828;SDS011;37881;48.024;8.774;2022-07-04T12:54:11;5.97;;;4.60;;
51828;SDS011;37881;48.024;8.774;2022-07-04T12:56:39;9.30;;;4.43;;
51828;SDS011;37881;48.024;8.774;2022-07-04T12:59:10;5.40;;;4.20;;
51828;SDS011;37881;48.024;8.774;2022-07-04T13:01:39;6.40;;;4.30;;
51828;SDS011;37881;48.024;8.774;2022-07-04T13:04:07;6.55;;;4.32;;
51828;SDS011;37881;48.024;8.774;2022-07-04T13:06:34;7.03;;;4.57;;
51828;SDS011;37881;48.024;8.774;2022-07-04T13:09:02;6.33;;;4.50;;
51828;SDS011;37881;48.024;8.774;2022-07-04T13:11:30;5.13;;;4.22;;
51828;SDS011;37881;48.024;8.774;2022-07-04T13:14:15;10.50;;;5.15;;
51828;SDS011;37881;48.024;8.774;2022-07-04T13:16:42;16.17;;;6.00;;
51828;SDS011;37881;48.024;8.774;2022-07-04T13:19:09;14.85;;;6.30;;
51828;SDS011;37881;48.024;8.774;2022-07-04T13:21:36;8.27;;;5.57;;
51828;SDS011;37881;48.024;8.774;2022-07-04T13:24:03;7.93;;;5.55;;
51828;SDS011;37881;48.024;8.774;2022-07-04T13:26:30;8.52;;;5.25;;
51828;SDS011;37881;48.024;8.774;2022-07-04T13:28:58;10.85;;;5.70;;
51828;SDS011;37881;48.024;8.774;2022-07-04T13:31:27;10.63;;;5.43;;
51828;SDS011;37881;48.024;8.774;2022-07-04T13:33:54;9.17;;;6.37;;
51828;SDS011;37881;48.024;8.774;2022-07-04T13:36:22;9.63;;;6.50;;
51828;SDS011;37881;48.024;8.774;2022-07-04T13:38:49;9.82;;;6.20;;
51828;SDS011;37881;48.024;8.774;2022-07-04T13:41:33;10.38;;;6.20;;
51828;SDS011;37881;48.024;8.774;2022-07-04T13:44:01;9.00;;;5.95;;
51828;SDS011;37881;48.024;8.774;2022-07-04T13:46:29;11.27;;;6.27;;
51828;SDS011;37881;48.024;8.774;2022-07-04T13:48:58;10.60;;;6.18;;
51828;SDS011;37881;48.024;8.774;2022-07-04T13:51:24;9.30;;;6.15;;
51828;SDS011;37881;48.024;8.774;2022-07-04T13:53:51;7.45;;;5.63;;
51828;SDS011;37881;48.024;8.774;2022-07-04T13:56:18;7.55;;;5.95;;
51828;SDS011;37881;48.024;8.774;2022-07-04T13:58:46;8.90;;;5.63;;
51828;SDS011;37881;48.024;8.774;2022-07-04T14:01:14;9.07;;;5.82;;
51828;SDS011;37881;48.024;8.774;2022-07-04T14:03:42;10.13;;;6.28;;
51828;SDS011;37881;48.024;8.774;2022-07-04T14:06:09;11.40;;;6.45;;
51828;SDS011;37881;48.024;8.774;2022-07-04T14:08:37;8.93;;;6.68;;
51828;SDS011;37881;48.024;8.774;2022-07-04T14:11:04;11.93;;;7.33;;
51828;SDS011;37881;48.024;8.774;2022-07-04T14:13:30;11.32;;;7.55;;
51828;SDS011;37881;48.024;8.774;2022-07-04T14:15:57;8.50;;;6.30;;
51828;SDS011;37881;48.024;8.774;2022-07-04T14:18:26;12.35;;;7.25;;
51828;SDS011;37881;48.024;8.774;2022-07-04T14:20:52;7.55;;;6.45;;
51828;SDS011;37881;48.024;8.774;2022-07-04T14:23:19;9.67;;;6.30;;
51828;SDS011;37881;48.024;8.774;2022-07-04T14:26:10;9.93;;;6.32;;
51828;SDS011;37881;48.024;8.774;2022-07-04T14:28:38;9.65;;;6.40;;
51828;SDS011;37881;48.024;8.774;2022-07-04T14:31:06;8.20;;;5.90;;
51828;SDS011;37881;48.024;8.774;2022-07-04T14:33:33;10.20;;;5.97;;
51828;SDS011;37881;48.024;8.774;2022-07-04T14:36:01;8.33;;;6.10;;
51828;SDS011;37881;48.024;8.774;2022-07-04T14:38:29;8.55;;;5.85;;
51828;SDS011;37881;48.024;8.774;2022-07-04T14:40:56;10.48;;;5.68;;
51828;SDS011;37881;48.024;8.774;2022-07-04T14:43:22;7.63;;;6.10;;
51828;SDS011;37881;48.024;8.774;2022-07-04T14:45:49;9.50;;;5.90;;
51828;SDS011;37881;48.024;8.774;2022-07-04T14:48:16;8.33;;;6.00;;
51828;SDS011;37881;48.024;8.774;2022-07-04T14:50:42;8.10;;;6.22;;
51828;SDS011;37881;48.024;8.774;2022-07-04T14:53:09;11.13;;;6.70;;
51828;SDS011;37881;48.024;8.774;2022-07-04T14:55:37;7.88;;;6.50;;
51828;SDS011;37881;48.024;8.774;2022-07-04T14:58:04;8.77;;;5.95;;
51828;SDS011;37881;48.024;8.774;2022-07-04T15:00:30;8.33;;;6.10;;
51828;SDS011;37881;48.024;8.774;2022-07-04T15:02:57;6.95;;;5.97;;
51828;SDS011;37881;48.024;8.774;2022-07-04T15:05:24;10.18;;;6.85;;
51828;SDS011;37881;48.024;8.774;2022-07-04T15:07:51;10.10;;;7.28;;
51828;SDS011;37881;48.024;8.774;2022-07-04T15:10:24;9.52;;;6.88;;
51828;SDS011;37881;48.024;8.774;2022-07-04T15:13:11;14.03;;;7.83;;
51828;SDS011;37881;48.024;8.774;2022-07-04T15:15:40;9.27;;;7.20;;
51828;SDS011;37881;48.024;8.774;2022-07-04T15:18:10;9.43;;;6.72;;
51828;SDS011;37881;48.024;8.774;2022-07-04T15:20:39;8.75;;;7.00;;
51828;SDS011;37881;48.024;8.774;2022-07-04T15:23:25;8.90;;;6.65;;
51828;SDS011;37881;48.024;8.774;2022-07-04T15:26:10;9.13;;;7.30;;
51828;SDS011;37881;48.024;8.774;2022-07-04T15:28:37;9.25;;;6.93;;
51828;SDS011;37881;48.024;8.774;2022-07-04T15:31:04;9.60;;;6.07;;
51828;SDS011;37881;48.024;8.774;2022-07-04T15:33:31;9.82;;;6.07;;
51828;SDS011;37881;48.024;8.774;2022-07-04T15:35:58;8.82;;;6.20;;